Bookmark and Share
Track history (hours):
 

Virgo Phoenix

Last reported at 2014-Apr-22 06:29 UTC. Time now 2014-Apr-24 06:23 UTC.
Position N 34°57' E 139°27'.

Length 96 m; draft 5.4 m.

Type: Ship (hazmat cat B). MMSI: 370795000.

NotesDate/timePositionNaut miles runAvg speedWind from/ knotsBaromVisibWave heightAir tempDewpointWater temp
2014-Apr-22 06:29N 34°57' E 139°27'1212.4
2014-Apr-22 05:33N 35°04' E 139°39'1212.4
2014-Apr-22 04:33N 35°15' E 139°46'1111.2
2014-Apr-22 03:33N 35°26' E 139°45'5 4.6
2014-Apr-22 02:22N 35°31' E 139°46'0 0.0
2014-Apr-22 01:31N 35°31' E 139°46'0 0.0
2014-Apr-22 00:22N 35°31' E 139°46'0 0.0
2014-Apr-21 23:25N 35°31' E 139°46'0 0.0
2014-Apr-21 22:31N 35°31' E 139°46'0 0.0
2014-Apr-21 21:31N 35°31' E 139°46'0 0.0
2014-Apr-21 20:28N 35°31' E 139°46'0 0.0
2014-Apr-21 19:31N 35°31' E 139°46'0 0.0
2014-Apr-21 18:31N 35°31' E 139°46'0 0.0
2014-Apr-21 17:28N 35°31' E 139°46'0 0.0
2014-Apr-21 16:28N 35°31' E 139°46'0 0.0
2014-Apr-21 15:25N 35°31' E 139°46'0 0.0
2014-Apr-21 14:31N 35°31' E 139°46'0 0.0
2014-Apr-21 13:31N 35°31' E 139°46'0 0.0
2014-Apr-21 12:31N 35°31' E 139°46'0 0.0
2014-Apr-21 11:25N 35°31' E 139°46'0 0.0
2014-Apr-21 10:31N 35°31' E 139°46'0 0.0
2014-Apr-21 09:31N 35°31' E 139°46'0 0.0
2014-Apr-21 08:28N 35°31' E 139°46'0 0.0
2014-Apr-21 07:31N 35°31' E 139°46'0 0.0
2014-Apr-21 06:22N 35°31' E 139°46'2 2.9
2014-Apr-21 05:33N 35°30' E 139°44'3 3.1
2014-Apr-21 04:34N 35°27' E 139°43'0 0.0
2014-Apr-21 03:34N 35°27' E 139°43'0 0.1
2014-Apr-21 02:31N 35°27' E 139°43'1 0.7
2014-Apr-21 01:33N 35°26' E 139°43'8 8.2
2014-Apr-21 00:33N 35°18' E 139°45'1312.6
2014-Apr-20 23:34N 35°06' E 139°46'1312.1
2014-Apr-20 22:29N 34°53' E 139°48'1312.5
2014-Apr-20 21:26N 34°54' E 140°03'1212.3
2014-Apr-20 20:29N 34°59' E 140°16'  

Dump ship's entire track history

sailing weather and tide predictions

Virgo Phoenix — 3FMO8 — position and weather